createdAt,value
2019-02-22T00:00:24.591Z,39.90
2019-02-22T00:01:24.579Z,38.50
2019-02-22T00:02:24.596Z,40.20
2019-02-22T00:03:24.603Z,39.70
2019-02-22T00:04:24.614Z,38.40
2019-02-22T00:05:24.646Z,39.80
2019-02-22T00:06:24.643Z,40.70
2019-02-22T00:07:24.651Z,41.10
2019-02-22T00:08:24.662Z,40.70
2019-02-22T00:09:24.672Z,39.90
2019-02-22T00:10:24.690Z,41.10
2019-02-22T00:11:24.696Z,41.20
2019-02-22T00:12:24.711Z,43.40
2019-02-22T00:13:24.724Z,39.60
2019-02-22T00:14:24.741Z,42.40
2019-02-22T00:15:24.757Z,42.10
2019-02-22T00:16:24.759Z,43.30
2019-02-22T00:17:24.787Z,40.10
2019-02-22T00:18:24.795Z,42.10
2019-02-22T00:19:24.799Z,41.10
2019-02-22T00:20:24.815Z,41.10
2019-02-22T00:21:24.831Z,42.40
2019-02-22T00:22:24.835Z,41.30
2019-02-22T00:23:24.851Z,39.10
2019-02-22T00:24:24.866Z,39.60
2019-02-22T00:25:24.881Z,42.40
2019-02-22T00:26:24.885Z,41.10
2019-02-22T00:27:24.899Z,40.10
2019-02-22T00:28:24.931Z,41.70
2019-02-22T00:29:24.931Z,41.40
2019-02-22T00:30:25.494Z,40.90
2019-02-22T00:31:24.956Z,40.40
2019-02-22T00:32:24.964Z,42.40
2019-02-22T00:33:24.984Z,40.80
2019-02-22T00:34:25.028Z,38.60
2019-02-22T00:35:25.120Z,40.50
2019-02-22T00:36:25.071Z,42.70
2019-02-22T00:37:25.128Z,42.90
2019-02-22T00:38:27.090Z,43.60
2019-02-22T00:39:25.053Z,41.60
2019-02-22T00:40:25.066Z,43.20
2019-02-22T00:41:25.081Z,43.10
2019-02-22T00:42:25.091Z,40.20
2019-02-22T00:43:25.102Z,40.90
2019-02-22T00:44:25.120Z,43.30
2019-02-22T00:45:25.134Z,40.00
2019-02-22T00:46:25.141Z,41.60
2019-02-22T00:47:25.160Z,40.20
2019-02-22T00:48:25.167Z,40.30
2019-02-22T00:49:25.188Z,39.50
2019-02-22T00:50:25.191Z,42.30
2019-02-22T00:51:25.203Z,39.10
2019-02-22T00:52:25.218Z,41.70
2019-02-22T00:53:25.239Z,38.80
2019-02-22T00:54:25.304Z,40.70
2019-02-22T00:55:25.257Z,40.20
2019-02-22T00:56:25.268Z,41.20
2019-02-22T00:57:25.280Z,39.30
2019-02-22T00:58:25.294Z,39.60
2019-02-22T00:59:25.304Z,40.30
2019-02-22T01:00:25.326Z,41.40
2019-02-22T01:01:25.459Z,41.70
2019-02-22T01:02:25.396Z,42.40
2019-02-22T01:03:25.354Z,40.80
2019-02-22T01:04:25.372Z,41.10
2019-02-22T01:05:25.384Z,39.50
2019-02-22T01:06:25.404Z,39.60
2019-02-22T01:07:25.410Z,42.10
2019-02-22T01:08:25.424Z,40.80
2019-02-22T01:09:25.430Z,44.00
2019-02-22T01:10:31.141Z,40.90
2019-02-22T01:11:25.467Z,40.00
2019-02-22T01:12:25.466Z,43.40
2019-02-22T01:13:25.491Z,44.10
2019-02-22T01:14:25.506Z,44.10
2019-02-22T01:15:25.505Z,44.70
2019-02-22T01:16:25.516Z,45.30
2019-02-22T01:17:25.541Z,45.30
2019-02-22T01:18:25.543Z,41.90
2019-02-22T01:19:25.576Z,44.20
2019-02-22T01:20:25.579Z,45.40
2019-02-22T01:21:25.583Z,45.80
2019-02-22T01:22:25.594Z,43.60
2019-02-22T01:23:25.605Z,46.20
2019-02-22T01:24:25.627Z,47.40
2019-02-22T01:25:25.634Z,46.60
2019-02-22T01:26:25.648Z,49.10
2019-02-22T01:27:25.661Z,46.70
2019-02-22T01:28:25.728Z,46.90
2019-02-22T01:29:25.683Z,47.10
2019-02-22T01:30:25.699Z,45.30
2019-02-22T01:31:25.862Z,49.20
2019-02-22T01:32:25.725Z,46.60
2019-02-22T01:33:25.815Z,47.70
2019-02-22T01:34:25.755Z,48.80
2019-02-22T01:35:25.765Z,47.70
2019-02-22T01:36:25.775Z,50.40
2019-02-22T01:37:25.794Z,51.00
2019-02-22T01:38:25.812Z,50.10
2019-02-22T01:39:25.816Z,50.30
2019-02-22T01:40:25.822Z,53.30
2019-02-22T01:41:25.835Z,55.10
2019-02-22T01:42:25.850Z,54.70
2019-02-22T01:43:25.864Z,54.00
2019-02-22T01:44:25.880Z,52.30
2019-02-22T01:45:25.886Z,52.70
2019-02-22T01:46:25.901Z,51.90
2019-02-22T01:47:25.929Z,51.90
2019-02-22T01:48:25.936Z,49.70
2019-02-22T01:49:25.935Z,49.90
2019-02-22T01:50:25.954Z,53.10
2019-02-22T01:51:25.968Z,49.80
2019-02-22T01:52:25.976Z,52.30
2019-02-22T01:53:25.988Z,50.60
2019-02-22T01:54:26.002Z,52.40
2019-02-22T01:55:26.015Z,51.60
2019-02-22T01:56:26.030Z,50.20
2019-02-22T01:57:26.049Z,50.70
2019-02-22T01:58:26.060Z,52.60
2019-02-22T01:59:26.066Z,52.70
2019-02-22T02:00:26.076Z,51.30
2019-02-22T02:01:26.092Z,52.10
2019-02-22T02:02:26.106Z,51.90
2019-02-22T02:03:26.115Z,53.30
2019-02-22T02:04:26.128Z,53.60
2019-02-22T02:05:26.150Z,52.50
2019-02-22T02:06:26.169Z,52.00
2019-02-22T02:07:26.171Z,54.80
2019-02-22T02:08:26.205Z,48.40
2019-02-22T02:09:26.225Z,52.00
2019-02-22T02:10:26.239Z,51.10
2019-02-22T02:11:26.222Z,52.20
2019-02-22T02:12:26.232Z,51.10
2019-02-22T02:13:26.245Z,52.00
2019-02-22T02:14:26.258Z,53.60
2019-02-22T02:15:26.274Z,56.40
2019-02-22T02:16:26.282Z,56.80
2019-02-22T02:17:26.295Z,55.50
2019-02-22T02:18:26.307Z,52.50
2019-02-22T02:19:26.324Z,54.40
2019-02-22T02:20:26.350Z,55.60
2019-02-22T02:21:26.345Z,53.60
2019-02-22T02:22:26.363Z,55.70
2019-02-22T02:23:26.375Z,56.60
2019-02-22T02:24:26.388Z,53.60
2019-02-22T02:25:26.403Z,51.40
2019-02-22T02:26:26.412Z,55.70
2019-02-22T02:27:26.429Z,54.20
2019-02-22T02:28:26.438Z,58.50
2019-02-22T02:29:26.454Z,51.10
2019-02-22T02:30:26.474Z,51.60
2019-02-22T02:31:26.475Z,52.70
2019-02-22T02:32:26.495Z,53.70
2019-02-22T02:33:26.505Z,53.60
2019-02-22T02:34:26.513Z,49.10
2019-02-22T02:35:26.536Z,51.80
2019-02-22T02:36:26.549Z,50.60
2019-02-22T02:37:26.555Z,54.80
2019-02-22T02:38:26.579Z,52.10
2019-02-22T02:39:26.593Z,52.00
2019-02-22T02:40:26.627Z,51.90
2019-02-22T02:41:26.621Z,51.40
2019-02-22T02:42:26.617Z,51.40
2019-02-22T02:43:26.631Z,53.90
2019-02-22T02:44:26.653Z,52.80
2019-02-22T02:45:26.710Z,54.10
2019-02-22T02:46:26.672Z,50.50
2019-02-22T02:47:26.684Z,50.40
2019-02-22T02:48:26.727Z,50.90
2019-02-22T02:49:26.710Z,48.50
2019-02-22T02:50:26.716Z,48.40
2019-02-22T02:51:26.732Z,46.90
2019-02-22T02:52:26.758Z,47.50
2019-02-22T02:53:26.757Z,48.90
2019-02-22T02:54:26.790Z,47.80
2019-02-22T02:55:26.794Z,51.70
2019-02-22T02:56:26.796Z,49.90
2019-02-22T02:57:26.826Z,45.60
2019-02-22T02:58:26.822Z,45.40
2019-02-22T02:59:26.852Z,50.30
2019-02-22T03:00:26.858Z,50.20
2019-02-22T03:01:26.861Z,49.40
2019-02-22T03:02:26.875Z,49.30
2019-02-22T03:03:26.890Z,48.10
2019-02-22T03:04:26.902Z,47.40
2019-02-22T03:05:26.913Z,49.30
2019-02-22T03:06:26.927Z,49.60
2019-02-22T03:07:26.938Z,51.80
2019-02-22T03:08:26.957Z,54.20
2019-02-22T03:09:26.962Z,50.90
2019-02-22T03:10:26.978Z,49.90
2019-02-22T03:11:27.055Z,48.70
2019-02-22T03:12:27.011Z,53.20
2019-02-22T03:13:27.015Z,50.70
2019-02-22T03:14:27.036Z,50.20
2019-02-22T03:15:27.052Z,50.40
2019-02-22T03:16:27.055Z,51.40
2019-02-22T03:17:27.157Z,50.40
2019-02-22T03:18:27.091Z,48.90
2019-02-22T03:19:27.118Z,49.70
2019-02-22T03:20:27.104Z,51.30
2019-02-22T03:21:27.117Z,51.60
2019-02-22T03:22:27.132Z,51.20
2019-02-22T03:23:27.158Z,52.60
2019-02-22T03:24:27.160Z,52.70
2019-02-22T03:25:27.173Z,52.30
2019-02-22T03:26:27.191Z,50.60
2019-02-22T03:27:27.196Z,54.70
2019-02-22T03:28:27.224Z,52.60
2019-02-22T03:29:27.220Z,52.00
2019-02-22T03:30:27.243Z,52.40
2019-02-22T03:31:27.256Z,52.40
2019-02-22T03:32:27.272Z,54.80
2019-02-22T03:33:27.279Z,54.00
2019-02-22T03:34:27.299Z,54.90
2019-02-22T03:35:27.310Z,57.10
2019-02-22T03:36:27.314Z,51.50
2019-02-22T03:37:27.326Z,52.60
2019-02-22T03:38:27.345Z,53.90
2019-02-22T03:39:27.353Z,58.20
2019-02-22T03:40:27.370Z,58.10
2019-02-22T03:41:32.729Z,56.40
2019-02-22T03:42:27.488Z,61.80
2019-02-22T03:43:27.405Z,52.00
2019-02-22T03:44:27.422Z,56.10
2019-02-22T03:45:27.430Z,54.00
2019-02-22T03:46:27.442Z,56.80
2019-02-22T03:47:27.461Z,54.30
2019-02-22T03:48:27.469Z,60.00
2019-02-22T03:49:27.481Z,55.00
2019-02-22T03:50:27.497Z,55.60
2019-02-22T03:51:27.508Z,58.00
2019-02-22T03:52:27.525Z,57.00
2019-02-22T03:53:27.532Z,55.20
2019-02-22T03:54:27.550Z,52.70
2019-02-22T03:55:27.571Z,54.10
2019-02-22T03:56:27.575Z,54.60
2019-02-22T03:57:27.601Z,53.70
2019-02-22T03:58:27.601Z,53.10
2019-02-22T03:59:27.610Z,53.00
2019-02-22T04:00:27.623Z,54.80
2019-02-22T04:01:27.650Z,53.30
2019-02-22T04:02:27.660Z,54.40
2019-02-22T04:03:27.664Z,57.10
2019-02-22T04:04:27.675Z,55.60
2019-02-22T04:05:27.693Z,52.90
2019-02-22T04:06:27.703Z,52.80
2019-02-22T04:07:27.721Z,59.70
2019-02-22T04:08:27.731Z,54.20
2019-02-22T04:09:27.739Z,57.20
2019-02-22T04:10:27.762Z,54.70
2019-02-22T04:11:27.775Z,52.90
2019-02-22T04:12:27.780Z,53.20
2019-02-22T04:13:27.797Z,51.70
2019-02-22T04:14:27.813Z,51.40
2019-02-22T04:15:28.024Z,51.70
2019-02-22T04:16:27.842Z,52.90
2019-02-22T04:17:27.843Z,49.70
2019-02-22T04:18:27.862Z,50.80
2019-02-22T04:19:27.881Z,47.40
2019-02-22T04:20:27.887Z,46.70
2019-02-22T04:21:27.900Z,45.50
2019-02-22T04:22:27.912Z,44.90
2019-02-22T04:23:27.922Z,47.30
2019-02-22T04:24:27.933Z,45.90
2019-02-22T04:25:27.955Z,41.60
2019-02-22T04:26:27.958Z,47.00
2019-02-22T04:27:27.973Z,45.20
2019-02-22T04:28:27.988Z,43.70
2019-02-22T04:29:28.007Z,46.00
2019-02-22T04:30:28.086Z,43.60
2019-02-22T04:31:28.028Z,43.70
2019-02-22T04:32:28.033Z,42.40
2019-02-22T04:33:28.046Z,42.10
2019-02-22T04:34:28.069Z,39.70
2019-02-22T04:35:28.084Z,39.30
2019-02-22T04:36:28.088Z,39.40
2019-02-22T04:37:28.101Z,41.40
2019-02-22T04:38:28.128Z,38.80
2019-02-22T04:39:28.135Z,41.70
2019-02-22T04:40:28.143Z,40.40
2019-02-22T04:41:28.150Z,41.20
2019-02-22T04:42:28.178Z,38.10
2019-02-22T04:43:28.177Z,40.30
2019-02-22T04:44:28.200Z,39.10
2019-02-22T04:45:28.254Z,39.00
2019-02-22T04:46:28.275Z,41.60
2019-02-22T04:47:28.286Z,41.60
2019-02-22T04:48:28.257Z,38.40
2019-02-22T04:49:28.260Z,39.10
2019-02-22T04:50:28.265Z,40.80
2019-02-22T04:51:28.279Z,38.40
2019-02-22T04:52:28.306Z,39.30
2019-02-22T04:53:28.308Z,39.10
2019-02-22T04:54:28.331Z,39.70
2019-02-22T04:55:29.357Z,38.20
2019-02-22T04:56:28.350Z,37.80
2019-02-22T04:57:28.364Z,35.70
2019-02-22T04:58:28.374Z,36.50
2019-02-22T04:59:28.385Z,37.70
2019-02-22T05:00:28.413Z,35.50
2019-02-22T05:01:28.417Z,36.60
2019-02-22T05:02:28.426Z,35.60
2019-02-22T05:03:28.454Z,36.60
2019-02-22T05:04:28.450Z,35.50
2019-02-22T05:05:28.469Z,37.30
2019-02-22T05:06:28.487Z,36.80
2019-02-22T05:07:28.519Z,35.20
2019-02-22T05:08:28.502Z,35.80
2019-02-22T05:09:28.516Z,35.10
2019-02-22T05:10:28.531Z,35.20
2019-02-22T05:11:28.546Z,35.90
2019-02-22T05:12:28.552Z,32.80
2019-02-22T05:13:28.570Z,33.20
2019-02-22T05:14:28.586Z,32.80
2019-02-22T05:15:28.598Z,34.50
2019-02-22T05:16:28.945Z,34.30
2019-02-22T05:17:28.618Z,36.50
2019-02-22T05:18:28.683Z,35.20
2019-02-22T05:19:28.731Z,35.30
2019-02-22T05:20:28.664Z,37.80
2019-02-22T05:21:28.680Z,35.00
2019-02-22T05:22:28.688Z,37.40
2019-02-22T05:23:28.695Z,34.90
2019-02-22T05:24:28.711Z,36.30
2019-02-22T05:25:28.728Z,37.00
2019-02-22T05:26:28.743Z,33.40
2019-02-22T05:27:28.754Z,33.90
2019-02-22T05:28:28.769Z,38.50
2019-02-22T05:29:28.775Z,35.40
2019-02-22T05:30:28.797Z,35.80
2019-02-22T05:31:28.816Z,35.20
2019-02-22T05:32:28.866Z,37.00
2019-02-22T05:33:28.827Z,37.80
2019-02-22T05:34:28.898Z,35.00
2019-02-22T05:35:28.857Z,37.90
2019-02-22T05:36:28.877Z,35.70
2019-02-22T05:37:28.891Z,34.40
2019-02-22T05:38:28.909Z,37.10
2019-02-22T05:39:28.904Z,35.60
2019-02-22T05:40:28.917Z,33.20
2019-02-22T05:41:28.941Z,37.00
2019-02-22T05:42:28.960Z,38.00
2019-02-22T05:43:29.001Z,37.10
2019-02-22T05:44:28.976Z,37.30
2019-02-22T05:45:29.057Z,34.80
2019-02-22T05:46:29.014Z,34.40
2019-02-22T05:47:29.039Z,36.40
2019-02-22T05:48:29.036Z,34.90
2019-02-22T05:50:29.051Z,35.20
2019-02-22T05:51:29.089Z,36.40
2019-02-22T05:52:29.082Z,33.80
2019-02-22T05:53:29.085Z,33.50
2019-02-22T05:54:29.120Z,34.70
2019-02-22T05:55:29.113Z,35.10
2019-02-22T05:56:29.139Z,36.80
2019-02-22T05:57:29.138Z,34.50
2019-02-22T05:58:29.147Z,34.50
2019-02-22T05:59:29.159Z,36.40
2019-02-22T06:00:29.171Z,36.40
2019-02-22T06:01:29.459Z,35.20
2019-02-22T06:02:29.197Z,35.70
2019-02-22T06:03:29.223Z,36.70
2019-02-22T06:04:29.247Z,35.90
2019-02-22T06:05:29.335Z,36.60
2019-02-22T06:06:29.248Z,37.40
2019-02-22T06:07:29.265Z,36.50
2019-02-22T06:08:29.273Z,36.70
2019-02-22T06:09:29.314Z,37.60
2019-02-22T06:10:29.320Z,37.40
2019-02-22T06:11:29.323Z,39.00
2019-02-22T06:12:34.572Z,38.40
2019-02-22T06:13:29.339Z,39.60
2019-02-22T06:14:29.362Z,40.10
2019-02-22T06:15:31.414Z,40.10
2019-02-22T06:16:29.379Z,42.50
2019-02-22T06:17:29.404Z,43.20
2019-02-22T06:18:29.404Z,40.50
2019-02-22T06:19:29.422Z,42.20
2019-02-22T06:20:29.439Z,45.70
2019-02-22T06:21:29.442Z,45.70
2019-02-22T06:22:30.123Z,44.10
2019-02-22T06:23:29.501Z,43.30
2019-02-22T06:24:29.496Z,44.30
2019-02-22T06:25:29.504Z,46.90
2019-02-22T06:26:30.435Z,46.60
2019-02-22T06:27:29.528Z,46.50
2019-02-22T06:28:29.544Z,47.00
2019-02-22T06:29:29.552Z,44.50
2019-02-22T06:30:29.562Z,49.20
2019-02-22T06:31:29.592Z,51.10
2019-02-22T06:32:29.591Z,48.40
2019-02-22T06:33:29.611Z,47.40
2019-02-22T06:34:29.630Z,53.30
2019-02-22T06:35:29.627Z,50.90
2019-02-22T06:36:29.648Z,52.10
2019-02-22T06:37:29.751Z,49.50
2019-02-22T06:38:29.667Z,50.80
2019-02-22T06:39:29.768Z,50.70
2019-02-22T06:40:29.693Z,50.90
2019-02-22T06:41:29.723Z,47.70
2019-02-22T06:42:30.208Z,48.70
2019-02-22T06:43:29.729Z,50.20
2019-02-22T06:44:29.753Z,50.60
2019-02-22T06:45:29.757Z,52.40
2019-02-22T06:46:29.769Z,51.30
2019-02-22T06:47:29.784Z,52.30
2019-02-22T06:48:29.797Z,53.90
2019-02-22T06:49:29.819Z,50.40
2019-02-22T06:50:33.778Z,49.90
2019-02-22T06:51:29.834Z,54.10
2019-02-22T06:52:29.926Z,54.30
2019-02-22T06:53:29.862Z,51.70
2019-02-22T06:54:29.878Z,53.40
2019-02-22T06:55:29.903Z,55.20
2019-02-22T06:56:29.904Z,56.20
2019-02-22T06:57:29.911Z,56.40
2019-02-22T06:58:29.933Z,54.30
2019-02-22T06:59:29.949Z,58.20
2019-02-22T07:00:29.988Z,55.40
2019-02-22T07:01:29.970Z,61.80
2019-02-22T07:02:29.986Z,54.40
2019-02-22T07:03:30.039Z,53.50
2019-02-22T07:04:30.010Z,58.10
2019-02-22T07:05:30.022Z,56.90
2019-02-22T07:06:30.033Z,55.60
2019-02-22T07:07:30.049Z,54.40
2019-02-22T07:09:30.084Z,60.10
2019-02-22T07:10:30.079Z,59.00
2019-02-22T07:11:30.207Z,58.70
2019-02-22T07:12:30.106Z,60.70
2019-02-22T07:13:32.407Z,56.90
2019-02-22T07:14:30.134Z,56.40
2019-02-22T07:15:30.154Z,57.30
2019-02-22T07:16:30.186Z,56.40
2019-02-22T07:17:30.174Z,57.60
2019-02-22T07:18:30.189Z,57.60
2019-02-22T07:19:30.223Z,57.70
2019-02-22T07:20:30.216Z,61.00
2019-02-22T07:21:43.740Z,56.80
2019-02-22T07:22:30.253Z,55.50
2019-02-22T07:23:30.266Z,59.50
2019-02-22T07:24:30.265Z,56.30
2019-02-22T07:25:30.285Z,62.70
2019-02-22T07:26:30.300Z,63.00
2019-02-22T07:27:30.304Z,65.90
2019-02-22T07:28:30.334Z,65.80
2019-02-22T07:29:30.329Z,62.50
2019-02-22T07:30:30.348Z,66.40
2019-02-22T07:31:30.358Z,66.50
2019-02-22T07:32:30.370Z,67.50
2019-02-22T07:33:30.386Z,61.80
2019-02-22T07:34:30.400Z,67.50
2019-02-22T07:35:30.420Z,62.60
2019-02-22T07:36:30.430Z,67.00
2019-02-22T07:37:30.472Z,63.00
2019-02-22T07:38:30.448Z,65.00
2019-02-22T07:39:30.465Z,64.90
2019-02-22T07:40:30.482Z,61.60
2019-02-22T07:41:30.546Z,64.50
2019-02-22T07:42:30.506Z,64.50
2019-02-22T07:43:30.517Z,69.50
2019-02-22T07:44:30.525Z,65.20
2019-02-22T07:45:30.542Z,66.60
2019-02-22T07:46:30.556Z,64.80
2019-02-22T07:47:30.569Z,66.60
2019-02-22T07:48:30.588Z,62.00
2019-02-22T07:49:30.604Z,64.70
2019-02-22T07:50:30.606Z,64.50
2019-02-22T07:51:30.620Z,63.50
2019-02-22T07:52:30.636Z,64.50
2019-02-22T07:53:30.642Z,66.00
2019-02-22T07:54:30.664Z,65.00
2019-02-22T07:55:30.687Z,65.80
2019-02-22T07:56:30.771Z,67.60
2019-02-22T07:57:30.699Z,65.80
2019-02-22T07:58:30.713Z,69.20
2019-02-22T07:59:30.727Z,65.30
2019-02-22T08:00:30.737Z,68.80
2019-02-22T08:01:30.755Z,69.40
2019-02-22T08:02:30.772Z,65.10
2019-02-22T08:03:30.782Z,64.60
2019-02-22T08:04:30.789Z,66.80
2019-02-22T08:05:30.810Z,64.10
2019-02-22T08:06:30.834Z,63.00
2019-02-22T08:07:30.861Z,66.80
2019-02-22T08:08:30.845Z,66.80
2019-02-22T08:09:30.904Z,64.70
2019-02-22T08:10:30.993Z,68.00
2019-02-22T08:11:30.904Z,67.30
2019-02-22T08:12:30.935Z,68.50
2019-02-22T08:13:30.966Z,67.80
2019-02-22T08:14:30.933Z,65.10
2019-02-22T08:15:30.940Z,64.10
2019-02-22T08:16:31.836Z,66.10
2019-02-22T08:17:31.731Z,67.20
2019-02-22T08:21:31.018Z,62.90
2019-02-22T08:22:31.029Z,63.70
2019-02-22T08:23:31.053Z,66.10
2019-02-22T08:24:31.075Z,67.00
2019-02-22T08:26:31.092Z,62.80
2019-02-22T08:27:31.452Z,64.80
2019-02-22T08:28:31.171Z,64.30
2019-02-22T08:29:31.121Z,65.50
2019-02-22T08:30:31.176Z,63.30
2019-02-22T08:32:31.162Z,65.90
2019-02-22T08:33:31.171Z,66.10
2019-02-22T08:34:31.185Z,62.50
2019-02-22T08:35:31.204Z,62.90
2019-02-22T08:36:31.211Z,63.80
2019-02-22T08:37:31.225Z,62.20
2019-02-22T08:38:31.244Z,61.30
2019-02-22T08:39:31.254Z,63.20
2019-02-22T08:40:31.269Z,60.40
2019-02-22T08:41:32.029Z,64.60
2019-02-22T08:42:31.299Z,61.70
2019-02-22T08:43:31.995Z,63.70
2019-02-22T08:44:31.385Z,61.30
2019-02-22T08:45:31.337Z,58.80
2019-02-22T08:46:31.345Z,62.90
2019-02-22T08:47:31.387Z,60.90
2019-02-22T08:48:31.391Z,60.10
2019-02-22T08:49:31.402Z,56.50
2019-02-22T08:50:31.410Z,56.10
2019-02-22T08:51:31.424Z,58.30
2019-02-22T08:52:31.433Z,56.10
2019-02-22T08:53:31.452Z,57.10
2019-02-22T08:54:31.457Z,57.70
2019-02-22T08:55:31.465Z,61.10
2019-02-22T08:56:31.476Z,57.10
2019-02-22T08:57:31.513Z,58.80
2019-02-22T08:58:31.525Z,57.10
2019-02-22T08:59:31.524Z,60.80
2019-02-22T09:00:31.562Z,57.50
2019-02-22T09:01:31.571Z,56.20
2019-02-22T09:02:31.559Z,55.00
2019-02-22T09:03:31.630Z,55.20
2019-02-22T09:04:31.613Z,53.90
2019-02-22T09:05:31.608Z,50.50
2019-02-22T09:06:31.672Z,49.80
2019-02-22T09:07:31.633Z,52.10
2019-02-22T09:08:32.150Z,54.30
2019-02-22T09:09:31.655Z,55.20
2019-02-22T09:10:31.665Z,52.00
2019-02-22T09:11:31.699Z,53.60
2019-02-22T09:12:31.706Z,49.60
2019-02-22T09:13:42.824Z,54.10
2019-02-22T09:14:31.726Z,52.80
2019-02-22T09:15:31.779Z,48.70
2019-02-22T09:16:31.927Z,53.20
2019-02-22T09:17:32.357Z,53.30
2019-02-22T09:19:31.789Z,49.80
2019-02-22T09:20:31.809Z,51.70
2019-02-22T09:21:31.848Z,49.70
2019-02-22T09:22:31.834Z,51.20
2019-02-22T09:23:31.884Z,49.50
2019-02-22T09:24:31.860Z,52.00
2019-02-22T09:25:31.876Z,51.30
2019-02-22T09:26:31.892Z,46.70
2019-02-22T09:27:31.993Z,49.40
2019-02-22T09:28:31.914Z,49.20
2019-02-22T09:29:31.926Z,51.60
2019-02-22T09:30:31.998Z,51.30
2019-02-22T09:31:31.952Z,47.10
2019-02-22T09:32:32.017Z,46.60
2019-02-22T09:33:31.987Z,49.00
2019-02-22T09:34:31.993Z,50.20
2019-02-22T09:35:32.097Z,47.60
2019-02-22T09:36:32.028Z,48.20
2019-02-22T09:37:32.039Z,48.40
2019-02-22T09:38:32.050Z,46.30
2019-02-22T09:39:32.172Z,47.20
2019-02-22T09:40:32.086Z,47.20
2019-02-22T09:41:32.091Z,46.50
2019-02-22T09:42:32.123Z,47.20
2019-02-22T09:43:32.121Z,46.50
2019-02-22T09:44:32.146Z,45.70
2019-02-22T09:45:32.288Z,45.30
2019-02-22T09:46:32.172Z,43.90
2019-02-22T09:47:32.190Z,45.30
2019-02-22T09:48:32.201Z,45.30
2019-02-22T09:49:32.238Z,47.40
2019-02-22T09:50:32.270Z,45.10
2019-02-22T09:51:32.248Z,45.70
2019-02-22T09:52:32.243Z,45.10
2019-02-22T09:53:32.258Z,44.80
2019-02-22T09:54:32.274Z,43.40
2019-02-22T09:55:32.287Z,43.90
2019-02-22T09:56:32.305Z,43.50
2019-02-22T09:57:32.311Z,41.80
2019-02-22T09:58:32.397Z,42.60
2019-02-22T09:59:32.537Z,44.90
2019-02-22T10:00:32.357Z,42.00
2019-02-22T10:01:32.378Z,44.60
2019-02-22T10:02:32.380Z,41.70
2019-02-22T10:03:32.430Z,41.10
2019-02-22T10:04:32.417Z,43.80
2019-02-22T10:05:32.430Z,45.40
2019-02-22T10:06:32.448Z,41.60
2019-02-22T10:07:32.868Z,43.50
2019-02-22T10:08:32.479Z,43.20
2019-02-22T10:09:32.803Z,40.80
2019-02-22T10:10:32.494Z,43.00
2019-02-22T10:11:32.508Z,42.00
2019-02-22T10:12:32.581Z,44.70
2019-02-22T10:13:32.692Z,44.20
2019-02-22T10:14:32.627Z,43.30
2019-02-22T10:15:32.765Z,42.20
2019-02-22T10:16:32.577Z,42.20
2019-02-22T10:17:32.591Z,42.90
2019-02-22T10:18:32.623Z,38.20
2019-02-22T10:19:32.760Z,41.20
2019-02-22T10:20:32.673Z,39.90
2019-02-22T10:21:32.865Z,38.60
2019-02-22T10:22:32.660Z,37.00
2019-02-22T10:23:32.725Z,36.60
2019-02-22T10:24:32.697Z,39.80
2019-02-22T10:25:32.698Z,39.80
2019-02-22T10:26:32.716Z,37.30
2019-02-22T10:27:32.745Z,39.10
2019-02-22T10:28:32.777Z,39.60
2019-02-22T10:29:32.766Z,40.30
2019-02-22T10:30:32.780Z,34.00
2019-02-22T10:31:32.965Z,38.10
2019-02-22T10:32:32.874Z,35.80
2019-02-22T10:33:36.695Z,38.30
2019-02-22T10:34:32.834Z,35.60
2019-02-22T10:35:32.854Z,35.80
2019-02-22T10:36:32.876Z,35.00
2019-02-22T10:37:33.171Z,36.10
2019-02-22T10:38:35.709Z,36.90
2019-02-22T10:39:32.904Z,33.50
2019-02-22T10:40:32.915Z,37.70
2019-02-22T10:41:32.937Z,36.80
2019-02-22T10:42:32.939Z,39.60
2019-02-22T10:43:32.964Z,37.70
2019-02-22T10:44:32.964Z,33.80
2019-02-22T10:45:32.992Z,36.80
2019-02-22T10:46:33.015Z,37.20
2019-02-22T10:47:33.028Z,37.10
2019-02-22T10:48:33.041Z,35.30
2019-02-22T10:49:33.036Z,36.00
2019-02-22T10:50:33.063Z,35.00
2019-02-22T10:51:34.175Z,37.50
2019-02-22T10:52:33.124Z,34.10
2019-02-22T10:53:33.094Z,38.00
2019-02-22T10:54:33.135Z,36.00
2019-02-22T10:55:33.153Z,34.50
2019-02-22T10:56:33.152Z,35.50
2019-02-22T10:58:33.177Z,34.70
2019-02-22T10:59:33.295Z,36.50
2019-02-22T11:00:33.210Z,35.70
2019-02-22T11:01:33.251Z,35.50
2019-02-22T11:02:33.241Z,34.30
2019-02-22T11:03:33.272Z,37.00
2019-02-22T11:04:33.265Z,37.20
2019-02-22T11:05:33.299Z,37.70
2019-02-22T11:06:33.315Z,36.00
2019-02-22T11:08:33.391Z,34.70
2019-02-22T11:09:33.321Z,35.50
2019-02-22T11:10:33.340Z,35.50
2019-02-22T11:11:33.365Z,33.50
2019-02-22T11:12:33.411Z,33.40
2019-02-22T11:13:33.377Z,35.60
2019-02-22T11:14:33.393Z,33.80
2019-02-22T11:15:33.478Z,35.30
2019-02-22T11:16:33.441Z,34.90
2019-02-22T11:17:33.452Z,33.00
2019-02-22T11:18:33.489Z,34.50
2019-02-22T11:19:33.507Z,33.20
2019-02-22T11:20:33.505Z,33.70
2019-02-22T11:21:33.553Z,35.70
2019-02-22T11:22:33.516Z,34.90
2019-02-22T11:23:33.539Z,34.90
2019-02-22T11:24:33.709Z,38.40
2019-02-22T11:25:33.577Z,37.30
2019-02-22T11:26:33.569Z,33.50
2019-02-22T11:27:33.577Z,34.60
2019-02-22T11:28:33.605Z,34.50
2019-02-22T11:29:33.603Z,32.10
2019-02-22T11:30:33.635Z,35.70
2019-02-22T11:31:33.638Z,34.70
2019-02-22T11:32:33.645Z,32.40
2019-02-22T11:33:33.708Z,32.50
2019-02-22T11:34:33.690Z,31.00
2019-02-22T11:35:33.713Z,29.20
2019-02-22T11:36:33.725Z,32.80
2019-02-22T11:37:33.719Z,31.20
2019-02-22T11:38:34.236Z,30.90
2019-02-22T11:39:33.756Z,31.40
2019-02-22T11:40:33.840Z,31.20
2019-02-22T11:41:33.783Z,30.80
2019-02-22T11:42:34.051Z,28.40
2019-02-22T11:43:33.806Z,31.30
2019-02-22T11:44:40.214Z,28.00
2019-02-22T11:45:33.826Z,27.70
2019-02-22T11:46:33.895Z,28.80
2019-02-22T11:47:33.869Z,29.60
2019-02-22T11:48:33.889Z,26.10
2019-02-22T11:49:33.882Z,26.70
2019-02-22T11:50:34.033Z,26.80
2019-02-22T11:51:33.919Z,25.10
2019-02-22T11:52:34.389Z,25.20
2019-02-22T11:53:33.964Z,26.10
2019-02-22T11:54:33.954Z,25.40
2019-02-22T11:55:33.969Z,27.20
2019-02-22T11:56:33.981Z,25.00
2019-02-22T11:57:34.004Z,27.40
2019-02-22T11:58:34.019Z,25.20
2019-02-22T11:59:34.029Z,28.10
2019-02-22T12:00:34.043Z,27.10
2019-02-22T12:01:34.062Z,27.00
2019-02-22T12:02:34.067Z,26.20
2019-02-22T12:03:34.087Z,26.70
2019-02-22T12:04:34.102Z,27.80
2019-02-22T12:05:34.141Z,27.50
2019-02-22T12:06:34.134Z,28.00
2019-02-22T12:07:34.139Z,23.60
2019-02-22T12:08:34.158Z,24.90
2019-02-22T12:09:34.185Z,25.00
2019-02-22T12:10:34.190Z,23.00
2019-02-22T12:11:34.196Z,21.50
2019-02-22T12:12:34.309Z,22.60
2019-02-22T12:13:34.236Z,21.40
2019-02-22T12:14:34.241Z,20.80
2019-02-22T12:15:34.285Z,21.80
2019-02-22T12:16:34.279Z,21.00
2019-02-22T12:17:34.298Z,26.00
2019-02-22T12:18:36.466Z,22.50
2019-02-22T12:19:34.312Z,20.60
2019-02-22T12:20:34.320Z,20.30
2019-02-22T12:21:34.366Z,20.70
2019-02-22T12:22:34.353Z,21.20
2019-02-22T12:23:34.535Z,20.50
2019-02-22T12:24:34.381Z,20.60
2019-02-22T12:25:34.394Z,23.00
2019-02-22T12:26:34.415Z,22.20
2019-02-22T12:27:35.094Z,21.70
2019-02-22T12:28:34.442Z,21.00
2019-02-22T12:29:34.458Z,22.00
2019-02-22T12:30:34.477Z,23.50
2019-02-22T12:31:34.950Z,23.60
2019-02-22T12:32:34.506Z,26.00
2019-02-22T12:33:35.361Z,24.80
2019-02-22T12:34:34.536Z,25.60
2019-02-22T12:35:34.535Z,24.80
2019-02-22T12:36:35.041Z,26.40
2019-02-22T12:37:34.654Z,28.10
2019-02-22T12:38:34.643Z,28.70
2019-02-22T12:39:34.609Z,24.50
2019-02-22T12:40:34.672Z,26.80
2019-02-22T12:41:34.640Z,25.70
2019-02-22T12:42:34.660Z,27.90
2019-02-22T12:43:34.656Z,27.30
2019-02-22T12:44:34.668Z,26.80
2019-02-22T12:45:34.707Z,28.00
2019-02-22T12:46:34.699Z,31.40
2019-02-22T12:47:34.723Z,29.90
2019-02-22T12:48:34.722Z,28.10
2019-02-22T12:49:34.731Z,26.70
2019-02-22T12:50:34.753Z,28.30
2019-02-22T12:51:34.767Z,27.90
2019-02-22T12:52:34.779Z,27.30
2019-02-22T12:53:34.803Z,27.10
2019-02-22T12:54:34.806Z,28.70
2019-02-22T12:55:34.854Z,30.80
2019-02-22T12:57:34.843Z,29.20
2019-02-22T12:58:34.859Z,27.90
2019-02-22T12:59:34.878Z,29.00
2019-02-22T13:00:34.906Z,28.80
2019-02-22T13:01:34.909Z,31.90
2019-02-22T13:02:34.919Z,28.10
2019-02-22T13:03:34.938Z,27.30